Time;durP1;ratioP1;P1;durP2;ratioP2;P2;SDS_P1;SDS_P2;PMS_P1;PMS_P2;Temp;Humidity;BMP_temperature;BMP_pressure;BME280_temperature;BME280_humidity;BME280_pressure;Samples;Min_cycle;Max_cycle;Signal;HPM_P1;HPM_P2
2024/03/09 00:01:15;;;;;;;;;;;6.80;82.70;;;;;;5024758;28;83545;-58
2024/03/09 00:03:40;;;;;;;;;;;6.80;82.60;;;;;;5027109;28;82284;-57
2024/03/09 00:06:07;;;;;;;;;;;6.80;82.70;;;;;;5036541;28;82115;-57
2024/03/09 00:08:34;;;;;;;;;;;6.80;82.70;;;;;;5022944;28;83812;-55
2024/03/09 00:11:00;;;;;;;;;;;6.70;82.60;;;;;;5022978;28;81227;-57
2024/03/09 00:13:28;;;;;;;;;;;6.70;82.70;;;;;;5028072;28;81839;-57
2024/03/09 00:15:54;;;;;;;;;;;6.70;82.60;;;;;;5041396;28;82601;-57
2024/03/09 00:18:20;;;;;;;;;;;6.80;82.60;;;;;;5025218;28;83098;-57
2024/03/09 00:20:47;;;;;;;;;;;6.80;82.60;;;;;;5028753;28;82366;-57
2024/03/09 00:23:13;;;;;;;;;;;6.70;82.50;;;;;;5034861;28;82489;-57
2024/03/09 00:25:40;;;;;;;;;;;6.70;82.60;;;;;;5032975;28;84128;-57
2024/03/09 00:28:06;;;;;;;;;;;6.70;82.50;;;;;;5033727;28;81965;-58
2024/03/09 00:30:31;;;;;;;;;;;6.70;82.80;;;;;;5026989;28;82250;-57
2024/03/09 00:33:00;;;;;;;;;;;6.70;82.70;;;;;;5034122;28;81845;-58
2024/03/09 00:35:29;;;;;;;;;;;6.70;82.70;;;;;;5035898;28;81638;-58
2024/03/09 00:37:58;;;;;;;;;;;6.70;82.80;;;;;;5039314;28;82162;-57
2024/03/09 00:40:30;;;;;;;;;;;6.70;82.70;;;;;;5033030;28;82419;-57
2024/03/09 00:42:57;;;;;;;;;;;6.70;82.70;;;;;;5027252;28;83503;-57
2024/03/09 00:45:22;;;;;;;;;;;6.70;82.70;;;;;;5029867;28;81927;-58
2024/03/09 00:47:48;;;;;;;;;;;6.70;82.90;;;;;;5028198;28;82035;-58
2024/03/09 00:50:15;;;;;;;;;;;6.70;82.80;;;;;;5031621;28;82000;-58
2024/03/09 00:52:41;;;;;;;;;;;6.70;82.80;;;;;;5028296;27;81959;-57
2024/03/09 00:55:16;;;;;;;;;;;6.70;82.70;;;;;;5030554;28;82597;-57
2024/03/09 00:57:42;;;;;;;;;;;6.60;82.80;;;;;;5030806;28;82357;-56
2024/03/09 01:00:11;;;;;;;;;;;6.70;82.80;;;;;;5037881;28;81887;-57
2024/03/09 01:02:37;;;;;;;;;;;6.60;82.70;;;;;;5028189;28;81875;-58
2024/03/09 01:05:04;;;;;;;;;;;6.60;82.70;;;;;;5034461;28;82103;-57
2024/03/09 01:07:30;;;;;;;;;;;6.60;82.70;;;;;;5033048;28;83456;-57
2024/03/09 01:09:56;;;;;;;;;;;6.60;82.80;;;;;;5025453;28;82004;-57
2024/03/09 01:12:21;;;;;;;;;;;6.60;82.80;;;;;;5030871;28;82043;-58
2024/03/09 01:14:48;;;;;;;;;;;6.60;82.80;;;;;;5031099;28;81935;-57
2024/03/09 01:17:21;;;;;;;;;;;6.60;82.90;;;;;;5028714;28;81974;-57
2024/03/09 01:19:47;;;;;;;;;;;6.60;82.80;;;;;;5031901;28;81847;-57
2024/03/09 01:22:13;;;;;;;;;;;6.60;82.80;;;;;;5030530;28;81987;-57
2024/03/09 01:24:41;;;;;;;;;;;6.60;82.70;;;;;;5030116;28;81724;-57
2024/03/09 01:27:08;;;;;;;;;;;6.50;82.80;;;;;;5030271;28;82475;-57
2024/03/09 01:29:33;;;;;;;;;;;6.50;82.90;;;;;;5026017;28;81921;-56
2024/03/09 01:32:04;;;;;;;;;;;6.50;83.00;;;;;;5027463;28;82893;-57
2024/03/09 01:34:30;;;;;;;;;;;6.50;82.80;;;;;;5031096;28;81930;-57
2024/03/09 01:36:56;;;;;;;;;;;6.50;83.00;;;;;;5029358;28;82078;-57
2024/03/09 01:39:23;;;;;;;;;;;6.50;83.00;;;;;;5026630;28;81948;-57
2024/03/09 01:41:50;;;;;;;;;;;6.50;82.90;;;;;;5031023;28;82323;-57
2024/03/09 01:44:16;;;;;;;;;;;6.50;82.80;;;;;;5029676;28;81905;-57
2024/03/09 01:46:41;;;;;;;;;;;6.50;82.90;;;;;;5032874;28;84022;-57
2024/03/09 01:49:08;;;;;;;;;;;6.50;82.90;;;;;;5030090;28;81212;-57
2024/03/09 01:51:34;;;;;;;;;;;6.50;83.00;;;;;;5028503;28;81903;-57
2024/03/09 01:54:06;;;;;;;;;;;6.50;83.00;;;;;;5029539;28;81819;-57
2024/03/09 01:56:38;;;;;;;;;;;6.50;82.90;;;;;;5026176;28;82864;-57
2024/03/09 01:59:07;;;;;;;;;;;6.50;83.00;;;;;;5027778;28;82671;-56
2024/03/09 02:01:36;;;;;;;;;;;6.50;83.00;;;;;;5029299;28;82575;-55
2024/03/09 02:04:04;;;;;;;;;;;6.40;83.00;;;;;;5028973;28;81880;-57
2024/03/09 02:06:31;;;;;;;;;;;6.40;83.00;;;;;;5026425;28;82305;-57
2024/03/09 02:08:57;;;;;;;;;;;6.40;83.10;;;;;;5029146;28;81950;-57
2024/03/09 02:11:23;;;;;;;;;;;6.40;83.20;;;;;;5035245;28;82028;-57
2024/03/09 02:13:50;;;;;;;;;;;6.40;83.10;;;;;;5026035;28;81647;-57
2024/03/09 02:16:16;;;;;;;;;;;6.40;83.10;;;;;;5026344;28;81952;-57
2024/03/09 02:18:45;;;;;;;;;;;6.40;83.10;;;;;;5029028;28;81831;-58
2024/03/09 02:21:13;;;;;;;;;;;6.40;83.20;;;;;;5025192;28;83403;-57
2024/03/09 02:23:39;;;;;;;;;;;6.40;83.10;;;;;;5024848;28;81878;-57
2024/03/09 02:26:05;;;;;;;;;;;6.40;83.20;;;;;;5028130;28;82039;-56
2024/03/09 02:28:32;;;;;;;;;;;6.40;83.10;;;;;;5027291;28;81890;-57
2024/03/09 02:31:01;;;;;;;;;;;6.40;83.00;;;;;;5024731;28;82649;-57
2024/03/09 02:33:28;;;;;;;;;;;6.40;83.10;;;;;;5026533;28;82412;-57
2024/03/09 02:35:54;;;;;;;;;;;6.40;83.00;;;;;;5029672;28;82645;-57
2024/03/09 02:38:23;;;;;;;;;;;6.40;83.00;;;;;;5033534;28;81635;-57
2024/03/09 02:40:48;;;;;;;;;;;6.30;83.00;;;;;;5026295;28;82847;-57
2024/03/09 02:43:16;;;;;;;;;;;6.30;83.00;;;;;;5025936;28;81988;-57
2024/03/09 02:45:42;;;;;;;;;;;6.30;83.00;;;;;;5024192;28;84578;-56
2024/03/09 02:48:08;;;;;;;;;;;6.30;83.10;;;;;;5028337;28;81833;-57
2024/03/09 02:50:33;;;;;;;;;;;6.30;83.10;;;;;;5021203;28;82623;-57
2024/03/09 02:53:00;;;;;;;;;;;6.30;83.10;;;;;;5021133;28;82327;-55
2024/03/09 02:55:27;;;;;;;;;;;6.30;83.10;;;;;;5025559;28;82182;-59
2024/03/09 02:57:53;;;;;;;;;;;6.30;83.10;;;;;;5031917;28;81951;-57
2024/03/09 03:00:26;;;;;;;;;;;6.30;83.10;;;;;;5024447;28;82441;-57
2024/03/09 03:05:40;;;;;;;;;;;6.30;83.30;;;;;;5025463;28;82380;-58
2024/03/09 03:08:06;;;;;;;;;;;6.30;83.10;;;;;;5020573;28;82043;-58
2024/03/09 03:10:32;;;;;;;;;;;6.20;83.10;;;;;;5022447;28;82939;-58
2024/03/09 03:12:58;;;;;;;;;;;6.30;83.20;;;;;;5027657;28;82679;-58
2024/03/09 03:15:25;;;;;;;;;;;6.20;83.20;;;;;;5025191;28;82478;-56
2024/03/09 03:17:51;;;;;;;;;;;6.20;83.20;;;;;;5030195;28;82033;-57
2024/03/09 03:20:18;;;;;;;;;;;6.20;83.20;;;;;;5027810;28;82305;-58
2024/03/09 03:22:47;;;;;;;;;;;6.20;83.10;;;;;;5032581;28;81924;-57
2024/03/09 03:25:14;;;;;;;;;;;6.20;83.30;;;;;;5022298;28;82508;-57
2024/03/09 03:27:47;;;;;;;;;;;6.20;83.10;;;;;;5026899;28;81592;-57
2024/03/09 03:30:15;;;;;;;;;;;6.20;83.20;;;;;;5027773;28;81956;-57
2024/03/09 03:32:41;;;;;;;;;;;6.20;83.30;;;;;;5032730;28;84833;-58
2024/03/09 03:35:07;;;;;;;;;;;6.20;83.30;;;;;;5021686;28;82903;-58
2024/03/09 03:37:33;;;;;;;;;;;6.20;83.30;;;;;;5022207;28;81953;-57
2024/03/09 03:39:59;;;;;;;;;;;6.20;83.30;;;;;;5028046;28;83435;-56
2024/03/09 03:42:26;;;;;;;;;;;6.20;83.20;;;;;;5023806;28;82030;-57
2024/03/09 03:44:51;;;;;;;;;;;6.20;83.10;;;;;;5026483;28;81822;-57
2024/03/09 03:47:17;;;;;;;;;;;6.20;83.20;;;;;;5023121;28;82500;-57
2024/03/09 03:49:42;;;;;;;;;;;6.20;83.20;;;;;;5030095;28;82048;-54
2024/03/09 03:52:08;;;;;;;;;;;6.20;83.10;;;;;;5026600;28;81585;-57
2024/03/09 03:54:35;;;;;;;;;;;6.20;83.10;;;;;;5029774;28;83020;-55
2024/03/09 03:57:01;;;;;;;;;;;6.10;83.20;;;;;;5024249;28;81995;-57
2024/03/09 03:59:27;;;;;;;;;;;6.10;83.30;;;;;;5025814;28;83077;-57
2024/03/09 04:01:53;;;;;;;;;;;6.10;83.30;;;;;;5028138;28;81977;-57
2024/03/09 04:04:18;;;;;;;;;;;6.10;83.30;;;;;;5023008;28;82048;-57
2024/03/09 04:06:44;;;;;;;;;;;6.10;83.30;;;;;;5024525;28;82722;-55
2024/03/09 04:09:13;;;;;;;;;;;6.10;83.30;;;;;;5029755;28;81914;-57
2024/03/09 04:11:39;;;;;;;;;;;6.10;83.20;;;;;;5028905;28;81927;-57
2024/03/09 04:14:04;;;;;;;;;;;6.10;83.30;;;;;;5029948;28;82842;-55
2024/03/09 04:16:30;;;;;;;;;;;6.10;83.30;;;;;;5032723;28;81701;-57
2024/03/09 04:18:55;;;;;;;;;;;6.00;83.30;;;;;;5025726;28;82351;-58
2024/03/09 04:21:21;;;;;;;;;;;6.00;83.40;;;;;;5025527;28;81951;-57
2024/03/09 04:23:47;;;;;;;;;;;6.00;83.50;;;;;;5027168;28;84358;-57
2024/03/09 04:26:14;;;;;;;;;;;6.00;83.40;;;;;;5025996;28;82521;-55
2024/03/09 04:28:40;;;;;;;;;;;6.00;83.40;;;;;;5026530;28;82377;-57
2024/03/09 04:31:06;;;;;;;;;;;6.00;83.40;;;;;;5027896;28;82061;-57
2024/03/09 04:33:33;;;;;;;;;;;6.00;83.40;;;;;;5030891;28;82510;-58
2024/03/09 04:35:59;;;;;;;;;;;6.00;83.40;;;;;;5026480;28;82601;-58
2024/03/09 04:38:25;;;;;;;;;;;6.00;83.40;;;;;;5031315;28;82336;-58
2024/03/09 04:40:51;;;;;;;;;;;6.00;83.40;;;;;;5027618;28;81310;-57
2024/03/09 04:43:17;;;;;;;;;;;6.00;83.50;;;;;;5024129;28;82058;-57
2024/03/09 04:45:43;;;;;;;;;;;6.00;83.40;;;;;;5024367;28;82313;-57
2024/03/09 04:48:09;;;;;;;;;;;6.00;83.30;;;;;;5025071;28;83791;-57
2024/03/09 04:50:35;;;;;;;;;;;6.00;83.30;;;;;;5024457;28;82828;-59
2024/03/09 04:53:05;;;;;;;;;;;5.90;83.40;;;;;;5025978;28;82604;-57
2024/03/09 04:55:31;;;;;;;;;;;6.00;83.40;;;;;;5027754;28;82049;-57
2024/03/09 04:57:57;;;;;;;;;;;6.00;83.30;;;;;;5024597;28;83094;-57
2024/03/09 05:00:24;;;;;;;;;;;6.00;83.30;;;;;;5025939;28;82340;-57
2024/03/09 05:02:50;;;;;;;;;;;6.00;83.40;;;;;;5025280;28;82702;-57
2024/03/09 05:05:17;;;;;;;;;;;6.00;83.40;;;;;;5030075;28;81493;-57
2024/03/09 05:07:43;;;;;;;;;;;5.90;83.30;;;;;;5028132;28;81968;-56
2024/03/09 05:10:09;;;;;;;;;;;5.90;83.50;;;;;;5030116;28;82748;-57
2024/03/09 05:12:36;;;;;;;;;;;5.90;83.50;;;;;;5029479;28;86273;-57
2024/03/09 05:15:02;;;;;;;;;;;5.90;83.50;;;;;;5031149;28;81838;-55
2024/03/09 05:17:28;;;;;;;;;;;6.00;83.50;;;;;;5028894;28;82696;-58
2024/03/09 05:19:53;;;;;;;;;;;5.90;83.50;;;;;;5025451;28;82149;-57
2024/03/09 05:22:19;;;;;;;;;;;5.90;83.50;;;;;;5029885;28;82736;-57
2024/03/09 05:24:44;;;;;;;;;;;5.90;83.50;;;;;;5026329;28;83673;-57
2024/03/09 05:27:10;;;;;;;;;;;5.90;83.40;;;;;;5028857;28;81858;-57
2024/03/09 05:29:36;;;;;;;;;;;5.90;83.50;;;;;;5028195;28;81669;-57
2024/03/09 05:32:05;;;;;;;;;;;5.90;83.50;;;;;;5027066;28;82245;-57
2024/03/09 05:34:34;;;;;;;;;;;5.90;83.50;;;;;;5034091;28;81903;-57
2024/03/09 05:37:06;;;;;;;;;;;5.90;83.40;;;;;;5027283;28;83366;-55
2024/03/09 05:39:36;;;;;;;;;;;5.90;83.50;;;;;;5031402;28;82579;-58
2024/03/09 05:42:04;;;;;;;;;;;5.90;83.40;;;;;;5024518;28;81908;-56
2024/03/09 05:44:32;;;;;;;;;;;5.90;83.50;;;;;;5030484;28;82726;-56
2024/03/09 05:46:59;;;;;;;;;;;5.90;83.50;;;;;;5025985;28;81845;-57
2024/03/09 05:49:26;;;;;;;;;;;5.90;83.50;;;;;;5028158;28;81930;-57
2024/03/09 05:51:52;;;;;;;;;;;5.90;83.50;;;;;;5032968;28;81926;-57
2024/03/09 05:54:18;;;;;;;;;;;5.90;83.60;;;;;;5030933;28;81207;-57
2024/03/09 05:56:43;;;;;;;;;;;5.80;83.50;;;;;;5026156;28;82108;-57
2024/03/09 05:59:09;;;;;;;;;;;5.80;83.40;;;;;;5031172;28;82703;-57
2024/03/09 06:01:35;;;;;;;;;;;5.80;83.60;;;;;;5031225;28;83850;-55
2024/03/09 06:04:00;;;;;;;;;;;5.80;83.60;;;;;;5030662;28;82415;-57
2024/03/09 06:06:26;;;;;;;;;;;5.80;83.60;;;;;;5030703;28;82505;-57
2024/03/09 06:08:52;;;;;;;;;;;5.80;83.70;;;;;;5029436;28;81848;-56
2024/03/09 06:11:18;;;;;;;;;;;5.80;83.70;;;;;;5027577;28;82383;-57
2024/03/09 06:13:44;;;;;;;;;;;5.80;83.60;;;;;;5028577;28;81925;-57
2024/03/09 06:16:15;;;;;;;;;;;5.80;83.70;;;;;;5031248;27;81911;-57
2024/03/09 06:18:40;;;;;;;;;;;5.80;83.70;;;;;;5035257;28;82350;-57
2024/03/09 06:21:07;;;;;;;;;;;5.80;83.80;;;;;;5024988;28;82044;-57
2024/03/09 06:23:32;;;;;;;;;;;5.80;83.80;;;;;;5037339;28;81973;-57
2024/03/09 06:25:58;;;;;;;;;;;5.80;83.90;;;;;;5026144;28;82873;-57
2024/03/09 06:28:23;;;;;;;;;;;5.80;83.80;;;;;;5027234;28;82978;-57
2024/03/09 06:30:49;;;;;;;;;;;5.80;83.70;;;;;;5029602;28;82498;-57
2024/03/09 06:33:15;;;;;;;;;;;5.80;83.70;;;;;;5036723;28;81803;-57
2024/03/09 06:35:40;;;;;;;;;;;5.80;83.70;;;;;;5029156;27;81893;-57
2024/03/09 06:38:08;;;;;;;;;;;5.80;83.90;;;;;;5024385;28;82914;-57
2024/03/09 06:40:39;;;;;;;;;;;5.70;83.80;;;;;;5031801;28;83631;-57
2024/03/09 06:43:05;;;;;;;;;;;5.80;83.70;;;;;;5029468;28;81729;-55
2024/03/09 06:45:31;;;;;;;;;;;5.70;83.90;;;;;;5026068;28;81974;-57
2024/03/09 06:47:59;;;;;;;;;;;5.70;83.90;;;;;;5030483;28;82302;-57
2024/03/09 06:50:29;;;;;;;;;;;5.70;83.80;;;;;;5041556;28;83421;-56
2024/03/09 06:52:54;;;;;;;;;;;5.70;83.80;;;;;;5031406;28;82899;-56
2024/03/09 06:55:24;;;;;;;;;;;5.70;83.80;;;;;;5023761;28;82295;-57
2024/03/09 06:57:51;;;;;;;;;;;5.70;84.00;;;;;;5026615;28;82605;-56
2024/03/09 07:00:17;;;;;;;;;;;5.70;84.00;;;;;;5029762;28;82531;-57
2024/03/09 07:02:43;;;;;;;;;;;5.70;84.00;;;;;;5027332;28;81866;-55
2024/03/09 07:05:09;;;;;;;;;;;5.70;84.00;;;;;;5030383;28;82411;-57
2024/03/09 07:07:36;;;;;;;;;;;5.70;84.10;;;;;;5031173;28;81651;-54
2024/03/09 07:10:02;;;;;;;;;;;5.70;83.80;;;;;;5036030;28;84141;-57
2024/03/09 07:12:27;;;;;;;;;;;5.70;84.00;;;;;;5026237;28;83569;-57
2024/03/09 07:14:54;;;;;;;;;;;5.70;84.00;;;;;;5027506;28;82936;-57
2024/03/09 07:17:21;;;;;;;;;;;5.70;84.40;;;;;;5032725;28;82414;-57
2024/03/09 07:19:46;;;;;;;;;;;5.70;84.00;;;;;;5025291;28;82439;-57
2024/03/09 07:22:14;;;;;;;;;;;5.70;84.10;;;;;;5025573;28;82590;-55
2024/03/09 07:24:43;;;;;;;;;;;5.70;84.00;;;;;;5024584;28;83167;-56
2024/03/09 07:27:09;;;;;;;;;;;5.70;84.00;;;;;;5030207;27;81920;-57
2024/03/09 07:29:38;;;;;;;;;;;5.70;83.80;;;;;;5025984;28;82563;-55
2024/03/09 07:32:06;;;;;;;;;;;5.70;84.00;;;;;;5027562;28;81371;-57
2024/03/09 07:34:33;;;;;;;;;;;5.70;84.00;;;;;;5029171;28;82627;-57
2024/03/09 07:36:59;;;;;;;;;;;5.60;84.00;;;;;;5030088;28;84658;-57
2024/03/09 07:39:24;;;;;;;;;;;5.70;84.00;;;;;;5032352;28;83717;-57
2024/03/09 07:41:50;;;;;;;;;;;5.70;84.00;;;;;;5023060;28;82638;-56
2024/03/09 07:44:15;;;;;;;;;;;5.60;83.90;;;;;;5024422;28;83068;-57
2024/03/09 07:46:41;;;;;;;;;;;5.60;84.10;;;;;;5027800;28;82812;-57
2024/03/09 07:49:07;;;;;;;;;;;5.60;84.20;;;;;;5031921;28;81992;-57
2024/03/09 07:51:35;;;;;;;;;;;5.70;84.00;;;;;;5029063;28;82005;-57
2024/03/09 07:54:01;;;;;;;;;;;5.60;84.10;;;;;;5027128;28;83027;-57
2024/03/09 07:56:27;;;;;;;;;;;5.70;83.90;;;;;;5027117;28;82137;-58
2024/03/09 07:58:52;;;;;;;;;;;5.70;84.30;;;;;;5020305;28;82766;-58
2024/03/09 08:01:18;;;;;;;;;;;5.70;84.20;;;;;;5023302;28;83548;-57
2024/03/09 08:03:45;;;;;;;;;;;5.60;84.20;;;;;;5024028;28;83499;-57
2024/03/09 08:06:11;;;;;;;;;;;5.70;84.30;;;;;;5027969;28;81997;-57
2024/03/09 08:08:36;;;;;;;;;;;5.70;84.20;;;;;;5028215;28;81954;-57
2024/03/09 08:11:02;;;;;;;;;;;5.70;84.20;;;;;;5031211;28;81904;-57
2024/03/09 08:13:28;;;;;;;;;;;5.70;84.20;;;;;;5026420;28;81958;-56
2024/03/09 08:15:54;;;;;;;;;;;5.60;84.30;;;;;;5027497;28;82215;-56
2024/03/09 08:18:21;;;;;;;;;;;5.60;84.30;;;;;;5027676;28;82420;-57
2024/03/09 08:20:47;;;;;;;;;;;5.60;84.30;;;;;;5026692;28;81567;-58
2024/03/09 08:23:13;;;;;;;;;;;5.60;85.00;;;;;;5023529;28;82919;-58
2024/03/09 08:25:39;;;;;;;;;;;5.60;84.40;;;;;;5022557;28;82062;-57
2024/03/09 08:28:04;;;;;;;;;;;5.60;84.30;;;;;;5029794;28;83861;-56
2024/03/09 08:30:31;;;;;;;;;;;5.60;84.50;;;;;;5027398;28;82660;-57
2024/03/09 08:32:58;;;;;;;;;;;5.60;84.50;;;;;;5025412;28;82013;-57
2024/03/09 08:35:24;;;;;;;;;;;5.60;84.30;;;;;;5028155;28;82212;-58
2024/03/09 08:37:51;;;;;;;;;;;5.60;84.40;;;;;;5027206;28;81997;-56
2024/03/09 08:40:19;;;;;;;;;;;5.60;84.50;;;;;;5026750;28;81950;-57
2024/03/09 08:42:48;;;;;;;;;;;5.60;84.60;;;;;;5025952;28;82647;-57
2024/03/09 08:45:14;;;;;;;;;;;5.60;84.40;;;;;;5027193;28;81352;-57
2024/03/09 08:47:41;;;;;;;;;;;5.60;84.60;;;;;;5031379;28;81833;-57
2024/03/09 08:50:10;;;;;;;;;;;5.60;84.70;;;;;;5028988;28;82787;-57
2024/03/09 08:52:36;;;;;;;;;;;5.60;84.70;;;;;;5029947;28;83981;-57
2024/03/09 08:55:02;;;;;;;;;;;5.60;84.70;;;;;;5030571;28;82764;-56
2024/03/09 08:57:27;;;;;;;;;;;5.60;84.70;;;;;;5025568;28;82467;-57
2024/03/09 08:59:59;;;;;;;;;;;5.60;85.20;;;;;;5028216;28;82151;-57
2024/03/09 09:02:27;;;;;;;;;;;5.60;84.70;;;;;;5030845;28;82632;-57
2024/03/09 09:04:53;;;;;;;;;;;5.60;84.80;;;;;;5027643;28;81969;-57
2024/03/09 09:07:19;;;;;;;;;;;5.60;85.10;;;;;;5029757;28;82485;-57
2024/03/09 09:09:45;;;;;;;;;;;5.60;85.00;;;;;;5031737;28;82347;-58
2024/03/09 09:12:10;;;;;;;;;;;5.60;84.90;;;;;;5029328;28;82863;-57
2024/03/09 09:14:36;;;;;;;;;;;5.60;85.00;;;;;;5027576;28;81968;-57
2024/03/09 09:17:06;;;;;;;;;;;5.60;84.90;;;;;;5028631;28;82889;-58
2024/03/09 09:19:38;;;;;;;;;;;5.70;84.90;;;;;;5027314;28;83034;-58
2024/03/09 09:22:06;;;;;;;;;;;5.70;85.00;;;;;;5024225;28;82221;-54
2024/03/09 09:24:32;;;;;;;;;;;5.70;84.90;;;;;;5027388;28;84073;-57
2024/03/09 09:26:58;;;;;;;;;;;5.70;85.00;;;;;;5032069;28;81895;-57
2024/03/09 09:29:29;;;;;;;;;;;5.70;85.00;;;;;;5032343;28;82390;-58
2024/03/09 09:32:01;;;;;;;;;;;5.70;85.00;;;;;;5028734;28;82698;-56
2024/03/09 09:34:30;;;;;;;;;;;5.70;85.10;;;;;;5029603;28;81731;-58
2024/03/09 09:36:56;;;;;;;;;;;5.70;85.00;;;;;;5034335;28;83002;-57
2024/03/09 09:39:25;;;;;;;;;;;5.70;85.10;;;;;;5026831;28;81857;-57
2024/03/09 09:41:57;;;;;;;;;;;5.70;85.20;;;;;;5022890;28;83714;-55
2024/03/09 09:44:26;;;;;;;;;;;5.60;85.20;;;;;;5025967;28;81918;-57
2024/03/09 09:46:55;;;;;;;;;;;5.60;85.20;;;;;;5035695;28;81891;-58
2024/03/09 09:49:22;;;;;;;;;;;5.60;85.40;;;;;;5026707;28;82696;-55
2024/03/09 09:51:48;;;;;;;;;;;5.60;85.30;;;;;;5025682;28;81987;-57
2024/03/09 09:54:14;;;;;;;;;;;5.60;85.50;;;;;;5031404;28;81974;-58
2024/03/09 09:56:41;;;;;;;;;;;5.60;85.50;;;;;;5024136;28;83085;-58
2024/03/09 09:59:07;;;;;;;;;;;5.60;85.20;;;;;;5026821;28;81269;-57
2024/03/09 10:01:32;;;;;;;;;;;5.60;85.40;;;;;;5027126;28;84104;-56
2024/03/09 10:03:59;;;;;;;;;;;5.60;85.60;;;;;;5028397;28;82345;-57
2024/03/09 10:06:25;;;;;;;;;;;5.60;85.40;;;;;;5026004;28;83713;-58
2024/03/09 10:08:51;;;;;;;;;;;5.60;85.50;;;;;;5024486;28;82582;-55
2024/03/09 10:11:17;;;;;;;;;;;5.60;85.60;;;;;;5026012;28;82896;-59
2024/03/09 10:13:46;;;;;;;;;;;5.60;85.70;;;;;;5027517;28;82414;-58
2024/03/09 10:16:15;;;;;;;;;;;5.60;85.60;;;;;;5026638;28;83590;-57
2024/03/09 10:18:41;;;;;;;;;;;5.60;85.80;;;;;;5028675;28;82428;-58
2024/03/09 10:21:09;;;;;;;;;;;5.60;85.80;;;;;;5028446;27;81999;-56
2024/03/09 10:23:34;;;;;;;;;;;5.60;85.90;;;;;;5026983;28;81552;-58
2024/03/09 10:26:06;;;;;;;;;;;5.60;86.10;;;;;;5029182;27;82120;-57
2024/03/09 10:28:39;;;;;;;;;;;5.50;85.90;;;;;;5022278;28;82649;-58
2024/03/09 10:31:06;;;;;;;;;;;5.60;86.20;;;;;;5026576;28;82899;-58
2024/03/09 10:33:34;;;;;;;;;;;5.60;86.10;;;;;;5027962;28;83000;-58
2024/03/09 10:36:00;;;;;;;;;;;5.60;86.30;;;;;;5028086;28;81923;-57
2024/03/09 10:38:28;;;;;;;;;;;5.60;86.30;;;;;;5026724;28;82767;-58
2024/03/09 10:40:57;;;;;;;;;;;5.60;86.10;;;;;;5023660;28;84435;-57
2024/03/09 10:43:23;;;;;;;;;;;5.70;86.20;;;;;;5037174;28;82665;-58
2024/03/09 10:45:50;;;;;;;;;;;5.60;86.10;;;;;;5027119;28;81919;-58
2024/03/09 10:48:16;;;;;;;;;;;5.60;86.40;;;;;;5028923;28;81735;-58
2024/03/09 10:50:48;;;;;;;;;;;5.60;86.30;;;;;;5024631;28;82848;-58
2024/03/09 10:53:36;;;;;;;;;;;5.70;86.50;;;;;;5026834;28;81950;-58
2024/03/09 10:56:18;;;;;;;;;;;5.60;86.60;;;;;;5021214;28;83416;-55
2024/03/09 10:58:43;;;;;;;;;;;5.60;86.70;;;;;;5024231;28;82042;-57
2024/03/09 11:01:10;;;;;;;;;;;5.60;86.70;;;;;;5030138;28;82719;-58
2024/03/09 11:03:36;;;;;;;;;;;5.60;86.80;;;;;;5029628;28;82286;-57
2024/03/09 11:06:02;;;;;;;;;;;5.60;86.90;;;;;;5029349;28;81996;-55
2024/03/09 11:08:28;;;;;;;;;;;5.60;86.90;;;;;;5027327;28;82421;-58
2024/03/09 11:10:54;;;;;;;;;;;5.60;87.00;;;;;;5027354;28;83443;-57
2024/03/09 11:13:20;;;;;;;;;;;5.60;87.00;;;;;;5026296;28;81807;-57
2024/03/09 11:15:49;;;;;;;;;;;5.60;87.20;;;;;;5031111;28;82689;-58
2024/03/09 11:18:15;;;;;;;;;;;5.60;87.20;;;;;;5025763;28;81974;-58
2024/03/09 11:21:07;;;;;;;;;;;5.60;87.20;;;;;;5025735;28;82932;-55
2024/03/09 11:23:33;;;;;;;;;;;5.60;87.20;;;;;;5021605;28;82418;-57
2024/03/09 11:26:00;;;;;;;;;;;5.70;88.00;;;;;;5026970;28;82316;-56
2024/03/09 11:28:30;;;;;;;;;;;5.60;87.30;;;;;;5026220;28;82368;-56
2024/03/09 11:31:11;;;;;;;;;;;5.70;87.60;;;;;;5028006;28;82369;-58
2024/03/09 11:33:43;;;;;;;;;;;5.60;87.50;;;;;;5026272;28;82639;-55
2024/03/09 11:36:27;;;;;;;;;;;5.70;87.50;;;;;;5021206;28;82959;-57
2024/03/09 11:38:55;;;;;;;;;;;5.70;87.60;;;;;;5027416;28;81156;-58
2024/03/09 11:41:24;;;;;;;;;;;5.70;87.70;;;;;;5023538;28;82491;-57
2024/03/09 11:43:50;;;;;;;;;;;5.70;87.80;;;;;;5026502;28;82453;-58
2024/03/09 11:46:15;;;;;;;;;;;5.70;87.80;;;;;;5023868;28;83011;-58
2024/03/09 11:48:41;;;;;;;;;;;5.70;87.80;;;;;;5030634;28;82732;-58
2024/03/09 11:51:09;;;;;;;;;;;5.70;87.80;;;;;;5028499;28;82682;-56
2024/03/09 11:53:35;;;;;;;;;;;5.70;87.70;;;;;;5023904;28;81955;-58
2024/03/09 11:56:00;;;;;;;;;;;5.70;87.70;;;;;;5029308;28;82626;-58
2024/03/09 11:58:26;;;;;;;;;;;5.80;87.90;;;;;;5026506;28;82928;-58
2024/03/09 12:00:52;;;;;;;;;;;5.80;87.70;;;;;;5023446;28;82436;-58
2024/03/09 12:03:18;;;;;;;;;;;5.80;87.80;;;;;;5031752;28;81142;-58
2024/03/09 12:05:43;;;;;;;;;;;5.80;87.90;;;;;;5026316;28;81987;-58
2024/03/09 12:08:09;;;;;;;;;;;5.80;88.10;;;;;;5026380;28;83414;-58
2024/03/09 12:10:36;;;;;;;;;;;5.70;88.20;;;;;;5033214;28;83189;-57
2024/03/09 12:13:01;;;;;;;;;;;5.80;88.30;;;;;;5028751;27;81953;-58
2024/03/09 12:15:28;;;;;;;;;;;5.80;88.30;;;;;;5029337;28;83672;-57
2024/03/09 12:17:54;;;;;;;;;;;5.80;88.40;;;;;;5029418;28;82076;-58
2024/03/09 12:20:19;;;;;;;;;;;5.80;88.50;;;;;;5035296;28;82004;-58
2024/03/09 12:22:46;;;;;;;;;;;5.80;88.40;;;;;;5029247;28;82451;-56
2024/03/09 12:25:12;;;;;;;;;;;5.80;88.60;;;;;;5030090;28;82586;-57
2024/03/09 12:27:39;;;;;;;;;;;5.80;88.70;;;;;;5028131;28;81812;-56
2024/03/09 12:30:08;;;;;;;;;;;5.80;88.60;;;;;;5028953;28;82572;-58
2024/03/09 12:32:35;;;;;;;;;;;5.80;88.70;;;;;;5030886;28;81938;-58
2024/03/09 12:35:01;;;;;;;;;;;5.80;88.90;;;;;;5027566;28;83181;-58
2024/03/09 12:37:26;;;;;;;;;;;5.80;89.10;;;;;;5027522;28;82493;-58
2024/03/09 12:40:25;;;;;;;;;;;5.80;89.20;;;;;;5032251;28;82559;-58
2024/03/09 12:42:53;;;;;;;;;;;5.80;89.20;;;;;;5008360;28;83733;-58
2024/03/09 12:45:23;;;;;;;;;;;5.80;89.30;;;;;;5023197;28;82028;-58
2024/03/09 12:47:50;;;;;;;;;;;5.80;89.50;;;;;;5028611;28;82861;-58
2024/03/09 12:50:16;;;;;;;;;;;5.80;89.60;;;;;;5030453;28;82294;-58
2024/03/09 12:52:45;;;;;;;;;;;5.80;89.60;;;;;;5029326;28;81959;-58
2024/03/09 12:55:16;;;;;;;;;;;5.70;89.90;;;;;;5029555;28;81835;-58
2024/03/09 12:57:43;;;;;;;;;;;5.80;90.00;;;;;;5026767;28;83001;-58
2024/03/09 13:00:19;;;;;;;;;;;5.80;90.10;;;;;;5030096;28;82924;-58
2024/03/09 13:02:48;;;;;;;;;;;5.70;90.20;;;;;;5026863;28;82776;-58
2024/03/09 13:05:15;;;;;;;;;;;5.70;90.20;;;;;;5027148;28;82002;-58
2024/03/09 13:07:41;;;;;;;;;;;5.70;90.20;;;;;;5029207;28;82016;-59
2024/03/09 13:10:06;;;;;;;;;;;5.80;90.20;;;;;;5028824;28;82334;-59
2024/03/09 13:12:32;;;;;;;;;;;5.80;90.30;;;;;;5027866;28;82680;-58
2024/03/09 13:14:58;;;;;;;;;;;5.80;90.30;;;;;;5029596;28;81814;-58
2024/03/09 13:17:23;;;;;;;;;;;5.80;90.40;;;;;;5031191;28;81169;-58
2024/03/09 13:19:49;;;;;;;;;;;5.70;90.40;;;;;;5030362;28;82409;-58
2024/03/09 13:22:15;;;;;;;;;;;5.70;90.40;;;;;;5028704;28;82475;-59
2024/03/09 13:24:42;;;;;;;;;;;5.70;90.40;;;;;;5024685;28;83392;-59
2024/03/09 13:27:07;;;;;;;;;;;5.70;90.40;;;;;;5030141;28;82774;-56
2024/03/09 13:29:33;;;;;;;;;;;5.80;90.50;;;;;;5022709;28;82304;-59
2024/03/09 13:31:59;;;;;;;;;;;5.80;90.50;;;;;;5026883;28;82261;-59
2024/03/09 13:34:26;;;;;;;;;;;5.80;90.60;;;;;;5024581;28;82998;-59
2024/03/09 13:36:53;;;;;;;;;;;5.80;90.50;;;;;;5033102;28;82490;-59
2024/03/09 13:39:26;;;;;;;;;;;5.80;90.50;;;;;;5027087;28;82583;-59
2024/03/09 13:41:52;;;;;;;;;;;5.90;90.40;;;;;;5026156;28;82091;-59
2024/03/09 13:44:23;;;;;;;;;;;6.00;90.30;;;;;;5026789;28;82679;-59
2024/03/09 13:46:50;;;;;;;;;;;6.00;90.40;;;;;;5027941;28;82526;-59
2024/03/09 13:49:19;;;;;;;;;;;5.90;90.40;;;;;;5027867;28;83495;-58
2024/03/09 13:51:44;;;;;;;;;;;6.10;90.40;;;;;;5026727;28;82181;-59
2024/03/09 13:54:11;;;;;;;;;;;6.10;90.10;;;;;;5025230;28;81859;-59
2024/03/09 13:56:37;;;;;;;;;;;6.10;90.30;;;;;;5032698;28;82394;-59
2024/03/09 13:59:03;;;;;;;;;;;6.10;90.20;;;;;;5031645;28;82137;-59
2024/03/09 14:01:29;;;;;;;;;;;6.20;90.10;;;;;;5028017;28;83515;-58
2024/03/09 14:03:57;;;;;;;;;;;6.20;90.00;;;;;;5027014;28;82071;-59
2024/03/09 14:06:23;;;;;;;;;;;6.30;90.00;;;;;;5026429;28;81765;-59
2024/03/09 14:08:50;;;;;;;;;;;6.30;89.80;;;;;;5028254;28;82182;-59
2024/03/09 14:11:19;;;;;;;;;;;6.40;89.80;;;;;;5028372;28;82082;-59
2024/03/09 14:13:44;;;;;;;;;;;6.40;89.80;;;;;;5027431;28;83036;-59
2024/03/09 14:16:10;;;;;;;;;;;6.40;89.70;;;;;;5029523;28;82397;-60
2024/03/09 14:18:38;;;;;;;;;;;6.40;89.50;;;;;;5024370;28;81914;-47
2024/03/09 14:21:07;;;;;;;;;;;6.20;90.60;;;;;;5028954;28;83772;-59
2024/03/09 14:23:33;;;;;;;;;;;6.10;90.90;;;;;;5027406;28;81967;-49
2024/03/09 14:25:59;;;;;;;;;;;6.10;91.40;;;;;;5022855;28;83001;-51
2024/03/09 14:28:25;;;;;;;;;;;6.10;91.60;;;;;;5026901;28;83720;-43
2024/03/09 14:30:52;;;;;;;;;;;6.10;91.60;;;;;;5032285;28;81913;-54
2024/03/09 14:33:17;;;;;;;;;;;6.10;91.60;;;;;;5026833;28;82638;-46